Time;durP1;ratioP1;P1;durP2;ratioP2;P2;SDS_P1;SDS_P2;PMS_P1;PMS_P2;Temp;Humidity;BMP_temperature;BMP_pressure;BME280_temperature;BME280_humidity;BME280_pressure;Samples;Min_cycle;Max_cycle;Signal;HPM_P1;HPM_P2
2023/10/14 00:01:12;;;;;;;5.50;2.92;;;;;;;11.13;68.37;96819.31;5135761;27;20046;-63
2023/10/14 00:03:42;;;;;;;10.45;3.50;;;;;;;11.06;68.32;96820.44;5135866;27;20047;-63
2023/10/14 00:06:11;;;;;;;9.23;4.00;;;;;;;11.03;68.58;96816.19;5135765;27;20130;-62
2023/10/14 00:08:47;;;;;;;8.13;3.53;;;;;;;11.06;68.68;96812.59;5135689;27;20047;-62
2023/10/14 00:11:15;;;;;;;8.10;3.47;;;;;;;10.84;69.25;96795.88;5135928;27;20111;-63
2023/10/14 00:13:43;;;;;;;7.45;3.42;;;;;;;10.91;69.60;96813.97;5135579;27;20555;-62
2023/10/14 00:16:22;;;;;;;8.40;3.50;;;;;;;10.81;69.67;96816.06;5135788;27;20043;-63
2023/10/14 00:18:50;;;;;;;8.32;3.95;;;;;;;10.79;69.70;96810.03;5135500;27;20087;-62
2023/10/14 00:21:17;;;;;;;7.75;3.15;;;;;;;10.81;69.61;96808.22;5135453;27;20481;-63
2023/10/14 00:23:44;;;;;;;8.85;3.83;;;;;;;10.88;69.34;96809.72;5135269;27;20414;-63
2023/10/14 00:26:17;;;;;;;5.18;3.55;;;;;;;10.89;69.22;96811.41;5135485;27;20096;-62
2023/10/14 00:28:45;;;;;;;7.95;3.72;;;;;;;10.89;69.43;96813.19;5135414;27;20051;-63
2023/10/14 00:31:13;;;;;;;5.85;3.53;;;;;;;10.86;70.00;96812.38;5135176;27;20458;-62
2023/10/14 00:33:45;;;;;;;8.23;3.70;;;;;;;10.82;70.10;96820.41;5135176;27;20074;-62
2023/10/14 00:36:16;;;;;;;9.98;3.58;;;;;;;10.73;69.62;96814.59;5135470;27;20085;-62
2023/10/14 00:38:45;;;;;;;8.55;4.20;;;;;;;10.70;70.08;96816.44;5135186;27;20054;-63
2023/10/14 00:41:12;;;;;;;5.78;3.58;;;;;;;10.69;70.33;96817.34;5135333;27;20180;-63
2023/10/14 00:43:40;;;;;;;6.03;3.65;;;;;;;10.68;70.00;96813.00;5134912;27;20043;-63
2023/10/14 00:46:14;;;;;;;6.65;3.80;;;;;;;10.59;70.59;96803.72;5134958;27;20138;-62
2023/10/14 00:48:46;;;;;;;5.90;3.60;;;;;;;10.51;71.25;96803.13;5134971;27;20043;-63
2023/10/14 00:51:19;;;;;;;5.88;3.83;;;;;;;10.49;71.53;96801.44;5134939;27;20047;-62
2023/10/14 00:53:52;;;;;;;8.63;4.03;;;;;;;10.39;71.60;96792.16;5134802;27;20047;-63
2023/10/14 00:56:27;;;;;;;12.18;3.97;;;;;;;10.42;71.81;96799.03;5134708;27;20087;-63
2023/10/14 00:58:58;;;;;;;5.68;3.65;;;;;;;10.50;72.15;96794.41;5134755;27;20047;-63
2023/10/14 01:01:28;;;;;;;;;;;;;;;10.47;72.58;96791.91;5135147;27;20090;-63
2023/10/14 01:04:03;;;;;;;3.65;3.28;;;;;;;10.43;72.97;96783.28;5134860;27;19949;-62
2023/10/14 01:06:39;;;;;;;14.82;4.30;;;;;;;10.49;72.56;96777.03;5134578;27;20047;-62
2023/10/14 01:09:13;;;;;;;8.80;3.92;;;;;;;10.47;72.71;96777.06;5134753;27;20043;-63
2023/10/14 01:11:41;;;;;;;8.65;3.70;;;;;;;10.52;73.38;96778.69;5134412;27;20047;-63
2023/10/14 01:14:14;;;;;;;8.23;3.90;;;;;;;10.60;73.20;96769.66;5134417;27;20044;-63
2023/10/14 01:16:41;;;;;;;9.25;4.25;;;;;;;10.60;73.88;96769.66;5134418;27;20043;-63
2023/10/14 01:19:11;;;;;;;9.68;4.90;;;;;;;10.70;74.53;96766.72;5134416;27;20108;-63
2023/10/14 01:21:41;;;;;;;8.52;4.07;;;;;;;10.78;74.35;96759.47;5134535;27;20051;-63
2023/10/14 01:24:16;;;;;;;10.32;4.13;;;;;;;10.91;73.88;96761.63;5134426;27;20078;-62
2023/10/14 01:26:52;;;;;;;5.60;3.85;;;;;;;10.98;73.21;96757.88;5134185;27;20039;-63
2023/10/14 01:29:30;;;;;;;11.48;4.20;;;;;;;11.02;72.60;96756.03;5113704;28;20043;-64
2023/10/14 01:32:10;;;;;;;7.97;5.03;;;;;;;11.05;72.13;96748.91;5113798;28;20071;-64
2023/10/14 01:34:42;;;;;;;11.18;3.80;;;;;;;11.06;72.08;96757.63;5113658;28;20500;-63
2023/10/14 01:37:17;;;;;;;5.10;3.85;;;;;;;11.06;72.25;96747.16;5113316;28;20096;-63
2023/10/14 01:39:48;;;;;;;9.40;4.15;;;;;;;11.11;71.93;96748.69;5113532;28;20051;-63
2023/10/14 01:42:18;;;;;;;6.25;4.15;;;;;;;11.14;71.46;96741.63;5113405;28;20044;-63
2023/10/14 01:44:45;;;;;;;5.43;3.63;;;;;;;11.14;71.09;96745.13;5113617;28;20426;-64
2023/10/14 01:47:13;;;;;;;5.10;4.00;;;;;;;11.14;71.07;96742.50;5113504;28;20055;-64
2023/10/14 01:49:39;;;;;;;9.95;4.22;;;;;;;11.15;71.14;96741.56;5113437;28;20054;-63
2023/10/14 01:52:11;;;;;;;10.57;3.63;;;;;;;11.12;70.83;96746.94;5113745;28;20048;-62
2023/10/14 01:54:39;;;;;;;8.02;4.47;;;;;;;11.11;70.68;96743.44;5113488;28;20473;-63
2023/10/14 01:57:16;;;;;;;10.82;4.22;;;;;;;11.10;70.85;96744.38;5113411;28;20481;-64
2023/10/14 01:59:45;;;;;;;12.45;4.07;;;;;;;11.05;70.92;96738.44;5113341;28;20454;-63
2023/10/14 02:02:19;;;;;;;6.80;4.23;;;;;;;10.96;71.13;96741.41;5113351;28;20607;-63
2023/10/14 02:04:47;;;;;;;8.50;4.28;;;;;;;10.98;71.15;96745.66;5113446;28;20291;-63
2023/10/14 02:07:19;;;;;;;6.53;3.90;;;;;;;10.92;71.44;96740.66;5113429;28;20043;-63
2023/10/14 02:09:47;;;;;;;5.68;4.53;;;;;;;10.84;71.66;96746.16;5113251;28;20055;-63
2023/10/14 02:12:18;;;;;;;9.88;4.82;;;;;;;10.85;71.43;96744.41;5113381;28;20050;-62
2023/10/14 02:14:56;;;;;;;7.82;4.28;;;;;;;10.87;71.35;96747.81;5113261;28;20051;-63
2023/10/14 02:17:24;;;;;;;11.35;4.60;;;;;;;10.83;71.46;96749.69;5113249;28;20129;-63
2023/10/14 02:19:52;;;;;;;5.60;4.18;;;;;;;10.84;71.80;96747.94;5113066;28;20404;-63
2023/10/14 02:22:23;;;;;;;9.13;4.25;;;;;;;10.79;71.50;96750.72;5113217;28;20051;-63
2023/10/14 02:24:55;;;;;;;14.90;4.50;;;;;;;10.77;71.58;96752.50;5113212;28;20051;-63
2023/10/14 02:27:24;;;;;;;7.85;3.95;;;;;;;10.72;71.17;96749.22;5118452;28;20174;-63
2023/10/14 02:29:51;;;;;;;11.02;3.72;;;;;;;10.67;71.56;96748.53;5133558;27;20047;-63
2023/10/14 02:32:20;;;;;;;12.10;4.18;;;;;;;10.67;71.63;96745.91;5133812;27;20511;-63
2023/10/14 02:34:47;;;;;;;8.82;3.83;;;;;;;10.64;71.40;96749.50;5133621;27;20047;-63
2023/10/14 02:37:15;;;;;;;6.40;3.97;;;;;;;10.63;71.52;96752.16;5133520;28;20467;-63
2023/10/14 02:39:44;;;;;;;6.65;3.80;;;;;;;10.52;72.74;96748.16;5133716;28;20396;-63
2023/10/14 02:42:14;;;;;;;8.45;3.78;;;;;;;10.48;73.16;96749.16;5133464;28;20039;-63
2023/10/14 02:44:46;;;;;;;;;;;;;;;10.46;73.19;96749.22;5134054;27;20412;-63
2023/10/14 02:47:14;;;;;;;7.70;3.90;;;;;;;10.42;72.91;96744.94;5133619;27;19923;-64
2023/10/14 02:49:41;;;;;;;6.43;3.95;;;;;;;10.41;72.71;96748.47;5137219;27;20043;-64
2023/10/14 02:52:10;;;;;;;9.88;3.88;;;;;;;10.34;72.93;96741.75;5137365;27;20043;-63
2023/10/14 02:54:40;;;;;;;13.93;4.47;;;;;;;10.28;73.58;96734.97;5137233;27;20075;-63
2023/10/14 02:57:14;;;;;;;12.65;4.60;;;;;;;10.23;74.27;96731.66;5137132;27;20043;-63
2023/10/14 02:59:48;;;;;;;8.10;3.95;;;;;;;10.21;74.32;96729.09;5136998;27;20047;-63
2023/10/14 03:02:16;;;;;;;19.23;4.78;;;;;;;10.21;74.33;96738.72;5137302;27;20058;-63
2023/10/14 03:04:54;;;;;;;7.53;4.10;;;;;;;10.18;74.43;96741.41;5137211;27;20084;-63
2023/10/14 03:07:23;;;;;;;8.02;3.88;;;;;;;10.18;74.52;96736.19;5136920;27;20047;-64
2023/10/14 03:09:51;;;;;;;9.60;4.35;;;;;;;10.06;74.79;96729.59;5136920;27;20118;-62
2023/10/14 03:12:21;;;;;;;11.85;4.60;;;;;;;10.08;74.68;96728.66;5136934;27;20043;-63
2023/10/14 03:14:51;;;;;;;3.80;3.40;;;;;;;10.09;74.28;96724.28;5136677;27;20079;-63
2023/10/14 03:17:24;;;;;;;6.85;4.03;;;;;;;10.05;74.60;96720.91;5136657;27;20043;-63
2023/10/14 03:19:53;;;;;;;7.15;3.80;;;;;;;10.09;74.27;96725.13;5136664;27;20492;-63
2023/10/14 03:22:23;;;;;;;6.53;4.00;;;;;;;10.07;74.38;96734.78;5136657;27;20491;-63
2023/10/14 03:24:51;;;;;;;8.70;3.97;;;;;;;10.06;74.55;96733.06;5136583;27;20079;-63
2023/10/14 03:27:20;;;;;;;10.75;4.13;;;;;;;10.04;75.40;96723.56;5136383;27;20468;-64
2023/10/14 03:29:58;;;;;;;7.72;4.47;;;;;;;10.06;75.10;96725.22;5136442;27;20092;-63
2023/10/14 03:32:32;;;;;;;8.90;4.50;;;;;;;10.12;74.40;96724.19;5136468;27;20152;-63
2023/10/14 03:35:03;;;;;;;8.18;4.30;;;;;;;10.11;74.49;96722.44;5136327;27;20377;-62
2023/10/14 03:37:35;;;;;;;10.57;4.47;;;;;;;10.13;74.46;96719.78;5136336;27;20051;-63
2023/10/14 03:42:53;;;;;;;6.82;4.03;;;;;;;10.10;74.41;96720.75;5136186;27;20058;-63
2023/10/14 03:45:22;;;;;;;8.40;4.40;;;;;;;10.11;74.95;96719.84;5136093;27;20404;-61
2023/10/14 03:47:52;;;;;;;7.32;3.58;;;;;;;10.15;74.68;96718.00;5136168;27;20047;-62
2023/10/14 03:50:24;;;;;;;10.38;3.33;;;;;;;10.13;74.40;96714.56;5136130;27;20054;-64
2023/10/14 03:52:53;;;;;;;11.45;3.90;;;;;;;10.15;74.19;96718.00;5136091;27;20043;-63
2023/10/14 03:55:24;;;;;;;11.70;6.28;;;;;;;10.15;74.55;96718.84;5136221;27;20043;-63
2023/10/14 03:58:03;;;;;;;15.73;4.80;;;;;;;10.21;74.54;96713.41;5135891;27;20043;-62
2023/10/14 04:00:36;;;;;;;5.95;4.40;;;;;;;10.21;74.63;96716.00;5135476;27;20438;-63
2023/10/14 04:03:12;;;;;;;8.88;4.13;;;;;;;10.21;74.87;96715.19;5135868;27;20051;-62
2023/10/14 04:05:45;;;;;;;5.13;3.92;;;;;;;10.18;75.06;96718.72;5135927;27;20055;-63
2023/10/14 04:08:13;;;;;;;7.68;4.50;;;;;;;10.19;74.89;96716.97;5135795;27;20070;-63
2023/10/14 04:10:46;;;;;;;6.38;4.10;;;;;;;10.22;75.22;96722.97;5135626;27;20400;-62
2023/10/14 04:13:15;;;;;;;6.70;4.05;;;;;;;10.21;74.12;96721.25;5136136;27;20166;-63
2023/10/14 04:15:49;;;;;;;6.13;4.03;;;;;;;10.16;74.02;96717.06;5135619;27;20039;-62
2023/10/14 04:18:24;;;;;;;8.27;3.80;;;;;;;10.11;75.02;96725.06;5135535;27;20043;-62
2023/10/14 04:21:12;;;;;;;6.32;3.90;;;;;;;10.07;75.39;96723.47;5135613;27;20043;-63
2023/10/14 04:23:59;;;;;;;6.65;3.95;;;;;;;10.05;75.30;96718.28;5135417;27;20081;-63
2023/10/14 04:26:31;;;;;;;9.68;4.05;;;;;;;10.06;74.62;96716.53;5135708;27;20122;-63
2023/10/14 04:29:00;;;;;;;7.45;4.32;;;;;;;9.98;75.27;96720.28;5135026;27;20066;-63
2023/10/14 04:31:39;;;;;;;9.45;4.05;;;;;;;9.95;75.76;96722.97;5135350;27;20039;-63
2023/10/14 04:34:14;;;;;;;8.60;4.68;;;;;;;9.90;75.90;96719.66;5135239;27;20051;-63
2023/10/14 04:36:53;;;;;;;10.20;4.03;;;;;;;9.90;76.01;96722.25;5135400;27;20388;-62
2023/10/14 04:39:27;;;;;;;8.95;4.65;;;;;;;9.92;75.79;96722.22;5135274;27;20088;-63
2023/10/14 04:41:58;;;;;;;8.20;3.83;;;;;;;9.90;75.78;96727.47;5135002;27;20061;-61
2023/10/14 04:44:36;;;;;;;8.68;3.85;;;;;;;9.92;76.11;96728.31;5134943;27;20043;-61
2023/10/14 04:47:04;;;;;;;9.27;3.83;;;;;;;9.99;75.80;96729.81;5135021;27;20043;-63
2023/10/14 04:49:42;;;;;;;7.65;4.35;;;;;;;9.99;76.02;96723.72;5134866;27;20484;-62
2023/10/14 04:52:09;;;;;;;11.93;4.20;;;;;;;10.05;75.70;96731.34;5134819;27;20145;-61
2023/10/14 04:54:51;;;;;;;9.23;4.13;;;;;;;10.10;75.33;96733.81;5134636;27;20047;-63
2023/10/14 04:57:22;;;;;;;7.68;3.55;;;;;;;10.09;75.61;96737.34;5134869;27;20075;-63
2023/10/14 04:59:54;;;;;;;9.25;4.50;;;;;;;10.03;75.61;96734.94;5134708;27;20112;-62
2023/10/14 05:02:24;;;;;;;12.32;4.82;;;;;;;10.03;75.95;96741.03;5134642;27;20055;-62
2023/10/14 05:04:53;;;;;;;11.15;4.45;;;;;;;10.11;76.05;96740.75;5134696;27;20126;-62
2023/10/14 05:07:21;;;;;;;8.50;4.20;;;;;;;10.17;75.92;96737.09;5134725;27;20138;-62
2023/10/14 05:10:05;;;;;;;8.50;3.92;;;;;;;10.25;75.62;96742.91;5134483;27;20083;-62
2023/10/14 05:12:40;;;;;;;9.55;4.38;;;;;;;10.32;75.70;96741.81;5134388;27;20055;-63
2023/10/14 05:15:20;;;;;;;10.55;4.13;;;;;;;10.99;75.73;96738.69;5134426;27;20047;-62
2023/10/14 05:17:50;;;;;;;5.38;3.17;;;;;;;12.38;70.30;96749.91;5134595;27;20043;-62
2023/10/14 05:20:28;;;;;;;5.43;3.30;;;;;;;13.80;64.45;96747.22;5134218;27;20050;-63
2023/10/14 05:22:56;;;;;;;5.10;3.05;;;;;;;15.17;59.55;96750.94;5134477;27;20047;-62
2023/10/14 05:25:27;;;;;;;3.50;2.92;;;;;;;16.42;55.05;96763.47;5134754;27;20046;-64
2023/10/14 05:27:58;;;;;;;4.70;2.88;;;;;;;17.60;50.98;96765.28;5134162;27;20107;-63
2023/10/14 05:30:33;;;;;;;6.85;3.33;;;;;;;18.71;48.46;96775.88;5134553;27;20055;-63
2023/10/14 05:33:06;;;;;;;5.80;3.05;;;;;;;19.78;46.01;96768.53;5134195;27;20047;-64
2023/10/14 05:35:39;;;;;;;5.65;3.20;;;;;;;20.69;43.18;96770.81;5134218;27;20047;-62
2023/10/14 05:38:10;;;;;;;7.93;3.25;;;;;;;21.57;41.27;96770.34;5134504;27;20527;-62
2023/10/14 05:40:39;;;;;;;12.43;3.15;;;;;;;22.36;39.68;96775.63;5134066;27;20047;-62
2023/10/14 05:43:07;;;;;;;9.98;2.83;;;;;;;23.03;38.06;96778.09;5134118;27;20047;-62
2023/10/14 05:45:35;;;;;;;6.22;2.53;;;;;;;23.59;36.79;96772.50;5134126;27;20078;-62
2023/10/14 05:48:04;;;;;;;6.35;2.55;;;;;;;24.16;36.10;96777.34;5134136;27;20500;-63
2023/10/14 05:50:33;;;;;;;5.57;3.10;;;;;;;24.45;35.48;96762.31;5133989;27;20126;-62
2023/10/14 05:53:01;;;;;;;9.20;3.00;;;;;;;25.02;34.90;96774.97;5134030;28;20047;-63
2023/10/14 05:55:30;;;;;;;5.63;2.90;;;;;;;25.53;34.22;96779.16;5133897;28;20058;-62
2023/10/14 05:58:00;;;;;;;10.75;2.75;;;;;;;26.03;33.41;96771.75;5133921;28;20047;-63
2023/10/14 06:00:27;;;;;;;5.63;2.53;;;;;;;26.55;32.92;96770.28;5133834;28;20473;-64
2023/10/14 06:02:56;;;;;;;5.68;2.40;;;;;;;27.30;31.71;96774.38;5133986;28;20484;-63
2023/10/14 06:05:25;;;;;;;11.90;3.30;;;;;;;27.99;31.13;96768.16;5133880;27;20050;-64
2023/10/14 06:07:59;;;;;;;8.80;2.88;;;;;;;28.51;30.32;96770.81;5133810;27;20051;-63
2023/10/14 06:10:31;;;;;;;6.25;3.35;;;;;;;29.05;28.77;96768.66;5133852;27;20047;-62
2023/10/14 06:12:58;;;;;;;4.00;2.70;;;;;;;29.66;29.07;96772.72;5133801;28;20043;-63
2023/10/14 06:15:26;;;;;;;7.90;2.55;;;;;;;30.25;28.47;96761.50;5133748;28;20381;-62
2023/10/14 06:17:55;;;;;;;4.65;2.40;;;;;;;30.82;27.41;96768.56;5134093;27;20051;-63
2023/10/14 06:20:23;;;;;;;5.32;3.17;;;;;;;31.45;27.28;96770.97;5133728;27;20062;-62
2023/10/14 06:22:57;;;;;;;3.88;2.70;;;;;;;32.08;26.55;96768.91;5136212;27;20047;-61
2023/10/14 06:25:24;;;;;;;5.53;2.67;;;;;;;32.51;25.63;96776.25;5137695;27;20481;-63
2023/10/14 06:27:53;;;;;;;8.32;2.97;;;;;;;32.65;25.15;96783.47;5137459;27;20055;-63
2023/10/14 06:30:21;;;;;;;6.28;3.00;;;;;;;32.84;24.44;96777.59;5137699;27;20092;-64
2023/10/14 06:32:52;;;;;;;8.20;3.35;;;;;;;32.88;23.96;96782.44;5137571;27;20043;-62
2023/10/14 06:35:26;;;;;;;4.82;3.03;;;;;;;33.17;24.04;96782.47;5137628;27;20055;-63
2023/10/14 06:37:55;;;;;;;9.88;3.00;;;;;;;33.55;23.22;96785.84;5137523;27;20051;-62
2023/10/14 06:40:22;;;;;;;7.65;2.40;;;;;;;33.87;22.78;96780.81;5137720;27;20053;-63
2023/10/14 06:42:49;;;;;;;4.18;3.13;;;;;;;34.36;21.93;96781.66;5137614;27;20449;-63
2023/10/14 06:45:21;;;;;;;10.18;3.17;;;;;;;34.66;22.04;96775.88;5137326;27;20130;-63
2023/10/14 06:47:50;;;;;;;8.65;2.78;;;;;;;35.15;21.77;96781.09;5137250;27;20043;-63
2023/10/14 06:50:23;;;;;;;7.10;2.90;;;;;;;35.61;21.24;96786.72;5137320;27;20488;-63
2023/10/14 06:52:53;;;;;;;5.00;2.85;;;;;;;35.77;20.53;96771.00;5137298;27;20120;-63
2023/10/14 06:55:23;;;;;;;5.22;2.63;;;;;;;35.95;20.05;96775.75;5137176;27;20049;-63
2023/10/14 06:57:53;;;;;;;5.80;3.00;;;;;;;36.09;20.01;96775.69;5137232;27;20044;-63
2023/10/14 07:00:30;;;;;;;9.43;2.88;;;;;;;36.40;19.76;96765.91;5137136;27;20118;-65
2023/10/14 07:03:01;;;;;;;12.15;3.35;;;;;;;36.82;19.17;96767.31;5136879;27;20065;-63
2023/10/14 07:05:29;;;;;;;11.70;3.30;;;;;;;37.02;19.14;96765.25;5136937;27;20054;-64
2023/10/14 07:07:58;;;;;;;4.72;3.00;;;;;;;37.10;19.29;96764.13;5137004;27;20054;-62
2023/10/14 07:10:32;;;;;;;17.88;3.45;;;;;;;37.14;18.25;96757.19;5136837;27;20592;-63
2023/10/14 07:13:00;;;;;;;7.72;3.08;;;;;;;36.99;18.48;96760.25;5136911;27;20058;-63
2023/10/14 07:15:32;;;;;;;10.43;3.30;;;;;;;36.64;18.44;96758.00;5136755;27;20373;-64
2023/10/14 07:18:01;;;;;;;19.05;3.58;;;;;;;36.17;19.06;96750.94;5136752;27;20122;-64
2023/10/14 07:20:30;;;;;;;8.60;3.38;;;;;;;35.62;19.09;96755.75;5136969;27;20061;-63
2023/10/14 07:22:58;;;;;;;11.07;3.35;;;;;;;34.85;20.15;96746.22;5136562;27;20077;-64
2023/10/14 07:25:25;;;;;;;11.00;3.25;;;;;;;34.46;20.28;96745.13;5136616;27;20051;-63
2023/10/14 07:27:59;;;;;;;11.43;3.42;;;;;;;33.97;21.39;96753.31;5136500;27;20084;-63
2023/10/14 07:30:28;;;;;;;13.85;3.53;;;;;;;33.65;21.49;96749.22;5136643;27;20044;-62
2023/10/14 07:32:57;;;;;;;10.70;3.08;;;;;;;33.34;21.82;96749.63;5136229;27;20385;-63
2023/10/14 07:35:25;;;;;;;8.87;3.27;;;;;;;32.71;22.35;96745.84;5136052;27;20053;-63
2023/10/14 07:37:52;;;;;;;10.88;4.10;;;;;;;32.28;23.29;96733.97;5136787;27;20047;-62
2023/10/14 07:40:24;;;;;;;10.82;3.47;;;;;;;32.01;23.68;96734.50;5136273;27;20090;-62
2023/10/14 07:42:56;;;;;;;7.40;4.25;;;;;;;31.51;23.76;96736.97;5136158;27;20053;-63
2023/10/14 07:45:28;;;;;;;13.38;3.88;;;;;;;30.96;24.40;96732.63;5136417;27;20489;-63
2023/10/14 07:47:58;;;;;;;15.32;4.18;;;;;;;30.48;24.67;96733.69;5136191;27;20054;-61
2023/10/14 07:50:25;;;;;;;18.67;3.53;;;;;;;30.24;25.28;96727.47;5136406;27;20101;-63
2023/10/14 07:52:54;;;;;;;13.07;3.58;;;;;;;29.92;26.26;96721.25;5136345;27;20263;-62
2023/10/14 07:55:25;;;;;;;17.25;3.60;;;;;;;29.80;26.05;96726.19;5135942;27;20047;-62
2023/10/14 07:57:53;;;;;;;17.95;4.75;;;;;;;29.37;26.70;96721.09;5135969;27;20040;-63
2023/10/14 08:00:26;;;;;;;22.98;4.32;;;;;;;28.91;27.34;96732.44;5135954;27;20071;-64
2023/10/14 08:02:53;;;;;;;14.27;4.05;;;;;;;28.83;28.02;96720.69;5135803;27;20047;-61
2023/10/14 08:05:23;;;;;;;11.75;4.22;;;;;;;28.80;27.22;96720.22;5135940;27;20053;-63
2023/10/14 08:07:50;;;;;;;24.67;6.90;;;;;;;28.65;27.97;96717.34;5136026;27;20139;-63
2023/10/14 08:10:21;;;;;;;20.15;4.45;;;;;;;28.59;28.07;96713.50;5135700;27;20638;-61
2023/10/14 08:12:52;;;;;;;12.63;3.92;;;;;;;28.52;27.40;96716.00;5135672;27;20047;-61
2023/10/14 08:15:20;;;;;;;12.77;3.85;;;;;;;28.37;27.59;96703.22;5135646;27;20082;-62
2023/10/14 08:17:50;;;;;;;13.38;3.42;;;;;;;28.33;28.34;96706.44;5135659;27;20047;-61
2023/10/14 08:20:19;;;;;;;13.50;3.88;;;;;;;28.37;27.79;96705.06;5135617;27;20435;-63
2023/10/14 08:22:48;;;;;;;10.77;3.50;;;;;;;28.16;27.32;96702.84;5135409;27;20416;-62
2023/10/14 08:25:18;;;;;;;11.75;3.75;;;;;;;27.84;28.38;96698.06;5135626;27;20419;-62
2023/10/14 08:27:47;;;;;;;10.07;3.97;;;;;;;27.80;27.85;96695.88;5135201;27;20051;-62
2023/10/14 08:30:16;;;;;;;9.10;3.42;;;;;;;27.72;28.42;96694.84;5135326;27;20043;-62
2023/10/14 08:32:44;;;;;;;11.35;4.00;;;;;;;27.70;28.49;96686.13;5135641;27;20047;-62
2023/10/14 08:35:19;;;;;;;17.70;3.80;;;;;;;27.50;28.63;96683.69;5135387;27;20497;-63
2023/10/14 08:37:50;;;;;;;11.73;4.22;;;;;;;27.41;28.68;96689.16;5135319;27;20043;-63
2023/10/14 08:40:20;;;;;;;12.98;3.58;;;;;;;27.51;28.82;96684.50;5135122;27;20088;-62
2023/10/14 08:42:50;;;;;;;10.05;3.50;;;;;;;27.43;28.81;96681.81;5134923;27;20381;-62
2023/10/14 08:45:19;;;;;;;18.03;4.93;;;;;;;27.45;28.96;96682.50;5134371;27;20051;-63
2023/10/14 08:47:50;;;;;;;14.90;4.05;;;;;;;27.49;29.10;96681.16;5135071;27;20039;-62
2023/10/14 08:50:21;;;;;;;12.63;3.35;;;;;;;27.53;28.71;96678.97;5134853;27;20051;-61
2023/10/14 08:52:51;;;;;;;11.15;3.83;;;;;;;27.57;29.10;96680.34;5134984;27;20047;-62
2023/10/14 08:55:20;;;;;;;8.70;3.72;;;;;;;27.58;28.21;96682.03;5134624;27;20507;-63
2023/10/14 08:57:48;;;;;;;6.82;3.60;;;;;;;27.63;28.34;96682.38;5134783;27;20175;-62
2023/10/14 09:00:20;;;;;;;16.15;3.80;;;;;;;27.71;28.58;96673.53;5134794;27;20514;-63
2023/10/14 09:02:50;;;;;;;11.20;4.45;;;;;;;27.60;28.60;96671.97;5134806;27;20111;-62
2023/10/14 09:05:18;;;;;;;7.45;3.45;;;;;;;27.44;29.13;96676.28;5134771;27;20051;-62
2023/10/14 09:07:49;;;;;;;7.70;3.40;;;;;;;27.35;29.19;96672.72;5134664;27;20079;-62
2023/10/14 09:10:24;;;;;;;12.05;3.75;;;;;;;27.24;28.05;96668.47;5134776;27;20047;-63
2023/10/14 09:12:57;;;;;;;20.50;3.83;;;;;;;27.25;29.54;96663.94;5134647;27;20051;-62
2023/10/14 09:15:28;;;;;;;15.25;3.92;;;;;;;27.23;29.05;96657.88;5134755;27;20504;-63
2023/10/14 09:17:57;;;;;;;8.82;4.00;;;;;;;27.21;29.41;96660.72;5134401;27;20047;-63
2023/10/14 09:20:33;;;;;;;9.80;3.72;;;;;;;27.18;29.40;96653.00;5134631;27;20043;-63
2023/10/14 09:23:15;;;;;;;19.58;3.83;;;;;;;27.02;29.63;96661.00;5134276;27;20047;-61
2023/10/14 09:25:45;;;;;;;9.52;3.88;;;;;;;27.04;30.17;96646.41;5134303;27;20120;-63
2023/10/14 09:28:16;;;;;;;9.02;3.72;;;;;;;26.97;29.56;96643.47;5134213;27;20047;-61
2023/10/14 09:30:49;;;;;;;13.52;4.35;;;;;;;27.02;29.14;96634.16;5134319;27;20070;-62
2023/10/14 09:33:18;;;;;;;9.23;3.35;;;;;;;26.94;29.43;96633.06;5134222;27;20051;-61
2023/10/14 09:35:48;;;;;;;11.73;3.53;;;;;;;26.70;28.87;96631.94;5134226;27;20047;-64
2023/10/14 09:38:19;;;;;;;10.43;4.10;;;;;;;26.58;30.28;96635.91;5134071;27;20103;-63
2023/10/14 09:40:54;;;;;;;15.48;4.13;;;;;;;26.55;30.07;96617.44;5134328;27;20051;-61
2023/10/14 09:43:23;;;;;;;11.18;3.40;;;;;;;26.52;29.85;96618.59;5134164;27;20489;-62
2023/10/14 09:45:55;;;;;;;17.73;4.43;;;;;;;26.35;30.12;96613.13;5134099;27;20051;-62
2023/10/14 09:48:26;;;;;;;7.72;3.53;;;;;;;26.21;30.50;96606.44;5134225;27;20047;-62
2023/10/14 09:50:55;;;;;;;10.32;3.50;;;;;;;26.25;30.34;96605.13;5134113;27;20043;-62
2023/10/14 09:53:27;;;;;;;14.35;3.38;;;;;;;26.24;29.85;96606.13;5134104;27;20408;-62
2023/10/14 09:55:58;;;;;;;383.05;93.68;;;;;;;26.11;30.27;96597.66;5133992;27;20472;-62
2023/10/14 09:58:30;;;;;;;14.27;3.33;;;;;;;26.18;31.08;96592.50;5137881;27;20047;-63
2023/10/14 10:00:59;;;;;;;7.72;3.65;;;;;;;26.29;30.67;96592.28;5138162;27;20549;-61
2023/10/14 10:03:28;;;;;;;7.15;3.60;;;;;;;26.19;30.13;96580.81;5138067;27;20515;-61
2023/10/14 10:06:07;;;;;;;24.90;4.35;;;;;;;26.14;29.84;96580.41;5138166;27;20051;-62
2023/10/14 10:08:53;;;;;;;12.27;4.20;;;;;;;26.22;30.27;96580.50;5138146;27;20085;-61
2023/10/14 10:11:24;;;;;;;74.93;13.07;;;;;;;26.09;30.39;96573.69;5138202;27;20047;-61
2023/10/14 10:13:53;;;;;;;12.73;3.20;;;;;;;26.00;29.58;96571.94;5138014;27;20139;-61
2023/10/14 10:16:23;;;;;;;25.75;4.00;;;;;;;25.88;30.25;96563.31;5137936;27;20051;-63
2023/10/14 10:18:53;;;;;;;14.25;3.88;;;;;;;25.94;30.62;96565.38;5138090;27;20498;-61
2023/10/14 10:21:20;;;;;;;10.55;3.45;;;;;;;25.95;30.86;96550.16;5137977;27;20079;-61
2023/10/14 10:23:56;;;;;;;840.10;138.02;;;;;;;26.06;30.25;96559.75;5137823;27;20134;-62
2023/10/14 10:26:25;;;;;;;13.60;3.15;;;;;;;25.92;30.22;96554.00;5137773;27;20107;-62
2023/10/14 10:28:53;;;;;;;15.70;3.97;;;;;;;25.84;30.36;96549.41;5137911;27;20096;-61
2023/10/14 10:31:24;;;;;;;17.40;3.80;;;;;;;25.90;30.89;96542.56;5137730;27;20054;-63
2023/10/14 10:33:56;;;;;;;132.57;9.55;;;;;;;26.06;30.85;96541.84;5137682;27;20129;-61
2023/10/14 10:36:25;;;;;;;9.82;3.30;;;;;;;26.18;30.27;96539.75;5137641;27;20054;-62
2023/10/14 10:39:06;;;;;;;20.08;4.55;;;;;;;26.15;29.54;96540.06;5137616;27;20487;-62
2023/10/14 10:41:38;;;;;;;239.88;55.13;;;;;;;26.06;29.72;96533.81;5137506;27;20051;-62
2023/10/14 10:44:09;;;;;;;14.07;3.28;;;;;;;25.85;29.55;96526.13;5137443;27;20054;-62
2023/10/14 10:46:41;;;;;;;15.40;4.38;;;;;;;25.65;29.46;96525.47;5137327;27;20047;-62
2023/10/14 10:49:11;;;;;;;9.45;3.92;;;;;;;25.30;30.20;96522.59;5137304;27;20435;-63
2023/10/14 10:51:50;;;;;;;47.92;10.25;;;;;;;25.28;31.04;96519.25;5137255;27;20563;-62
2023/10/14 10:54:22;;;;;;;11.55;3.88;;;;;;;24.97;30.37;96512.38;5137308;27;20051;-62
2023/10/14 10:56:51;;;;;;;25.63;3.47;;;;;;;24.86;31.44;96503.53;5137196;27;20130;-62
2023/10/14 10:59:18;;;;;;;24.50;4.55;;;;;;;24.94;30.91;96504.66;5137329;27;20055;-62
2023/10/14 11:01:47;;;;;;;15.27;4.00;;;;;;;24.91;31.43;96503.13;5137145;27;20051;-63
2023/10/14 11:04:15;;;;;;;13.73;3.95;;;;;;;24.80;30.49;96484.59;5136903;27;20072;-61
2023/10/14 11:16:39;;;;;;;20.35;4.60;;;;;;;24.99;30.61;96481.81;4991765;28;20112;-62
2023/10/14 11:19:17;;;;;;;;;;;;;;;24.91;30.94;96478.19;4948011;28;20513;-63
2023/10/14 11:43:10;;;;;;;;;;;;;;;;;;;;;
2023/10/14 11:49:21;;;;;;;7.32;3.20;;;;;;;25.17;31.27;96435.53;4898432;28;20094;-62
2023/10/14 11:55:52;;;;;;;10.73;3.60;;;;;;;25.13;31.24;96436.78;4930344;28;20133;-62
2023/10/14 12:05:11;;;;;;;31.13;5.10;;;;;;;25.02;30.25;96424.50;5012183;28;20089;-63
2023/10/14 12:07:39;;;;;;;17.33;4.28;;;;;;;24.88;30.97;96412.50;5014774;28;20050;-61
2023/10/14 12:10:08;;;;;;;10.77;3.45;;;;;;;24.91;31.63;96404.16;5032630;28;20084;-63
2023/10/14 12:12:37;;;;;;;13.70;3.47;;;;;;;25.09;31.73;96406.00;5032879;28;20521;-62
2023/10/14 12:15:07;;;;;;;8.53;2.97;;;;;;;25.21;30.76;96404.78;5032692;28;20053;-64
2023/10/14 12:17:35;;;;;;;12.38;3.90;;;;;;;25.10;30.81;96405.84;5032544;28;20046;-61
2023/10/14 12:20:10;;;;;;;12.70;3.83;;;;;;;25.04;30.90;96398.44;5052551;28;20106;-62
2023/10/14 12:22:37;;;;;;;25.30;4.07;;;;;;;25.01;31.77;96385.34;5092591;28;20078;-62
2023/10/14 12:25:05;;;;;;;8.70;3.38;;;;;;;25.11;31.81;96391.47;5092516;28;20047;-62
2023/10/14 12:27:33;;;;;;;12.95;3.55;;;;;;;25.16;31.36;96387.50;5092258;28;20052;-62
2023/10/14 12:30:01;;;;;;;18.77;3.58;;;;;;;25.13;31.60;96387.81;5092616;28;20051;-62
2023/10/14 12:32:30;;;;;;;9.70;3.97;;;;;;;25.23;31.02;96376.00;5092274;28;20606;-62
2023/10/14 12:34:59;;;;;;;10.93;3.55;;;;;;;25.28;30.61;96378.22;5092251;28;20135;-62
2023/10/14 12:37:28;;;;;;;13.80;3.92;;;;;;;25.27;30.01;96363.16;5092225;28;20090;-62